createdAt,value
2023-02-27T00:01:39.829Z,101265.09
2023-02-27T00:04:08.194Z,101269.75
2023-02-27T00:06:36.276Z,101267.09
2023-02-27T00:09:04.826Z,101255.75
2023-02-27T00:11:32.890Z,101265.16
2023-02-27T00:14:01.216Z,101259.59
2023-02-27T00:16:30.647Z,101259.44
2023-02-27T00:19:01.241Z,101266.13
2023-02-27T00:21:29.759Z,101260.91
2023-02-27T00:23:58.172Z,101259.53
2023-02-27T00:26:26.393Z,101252.19
2023-02-27T00:28:54.687Z,101262.25
2023-02-27T00:31:22.847Z,101253.09
2023-02-27T00:33:52.548Z,101261.59
2023-02-27T00:36:20.578Z,101259.94
2023-02-27T00:38:49.119Z,101251.13
2023-02-27T00:41:17.178Z,101259.94
2023-02-27T00:43:45.930Z,101257.38
2023-02-27T00:46:13.941Z,101247.50
2023-02-27T00:48:42.267Z,101257.47
2023-02-27T00:51:11.652Z,101257.28
2023-02-27T00:53:39.908Z,101253.09
2023-02-27T00:56:08.622Z,101249.16
2023-02-27T00:58:36.969Z,101257.97
2023-02-27T01:01:05.145Z,101254.06
2023-02-27T01:03:33.456Z,101256.03
2023-02-27T01:06:01.798Z,101256.72
2023-02-27T01:08:31.411Z,101258.47
2023-02-27T01:10:59.453Z,101246.41
2023-02-27T01:13:27.753Z,101256.69
2023-02-27T01:15:55.784Z,101259.47
2023-02-27T01:18:24.106Z,101249.72
2023-02-27T01:20:53.428Z,101256.09
2023-02-27T01:23:22.024Z,101263.59
2023-02-27T01:25:52.180Z,101258.00
2023-02-27T01:28:21.187Z,101252.75
2023-02-27T01:30:49.454Z,101253.78
2023-02-27T01:33:18.005Z,101252.47
2023-02-27T01:35:46.251Z,101242.72
2023-02-27T01:38:14.565Z,101241.41
2023-02-27T01:40:43.743Z,101249.81
2023-02-27T01:43:16.330Z,101240.13
2023-02-27T01:45:47.664Z,101241.94
2023-02-27T01:48:18.716Z,101240.72
2023-02-27T01:50:50.067Z,101232.19
2023-02-27T01:53:20.237Z,101242.44
2023-02-27T01:55:49.129Z,101244.66
2023-02-27T01:58:18.902Z,101238.28
2023-02-27T02:00:47.315Z,101188.25
2023-02-27T02:03:21.658Z,101244.66
2023-02-27T02:05:51.139Z,101247.59
2023-02-27T02:08:21.080Z,101244.31
2023-02-27T02:10:51.441Z,101242.72
2023-02-27T02:13:23.520Z,101236.16
2023-02-27T02:16:00.542Z,101237.81
2023-02-27T02:18:34.630Z,101241.69
2023-02-27T02:21:30.100Z,101247.59
2023-02-27T02:24:24.708Z,101235.88
2023-02-27T02:26:59.903Z,101238.13
2023-02-27T02:30:04.837Z,101237.88
2023-02-27T02:32:58.693Z,101236.88
2023-02-27T02:35:57.167Z,101247.34
2023-02-27T02:38:52.019Z,101245.69
2023-02-27T02:41:27.921Z,101247.69
2023-02-27T02:44:03.822Z,101240.22
2023-02-27T02:46:36.784Z,101239.06
2023-02-27T02:49:14.192Z,101244.13
2023-02-27T02:51:48.978Z,101230.66
2023-02-27T02:54:21.966Z,101231.59
2023-02-27T02:56:53.412Z,101236.03
2023-02-27T02:59:27.735Z,101231.91
2023-02-27T03:02:00.262Z,101226.34
2023-02-27T03:04:32.282Z,101219.72
2023-02-27T03:07:04.989Z,101242.72
2023-02-27T03:09:37.017Z,101221.50
2023-02-27T03:12:07.693Z,101234.91
2023-02-27T03:14:37.861Z,101231.13
2023-02-27T03:17:11.636Z,101237.84
2023-02-27T03:19:42.502Z,101246.34
2023-02-27T03:22:13.009Z,101235.88
2023-02-27T03:24:45.403Z,101246.00
2023-02-27T03:27:14.272Z,101238.81
2023-02-27T03:29:47.026Z,101234.75
2023-02-27T03:32:19.583Z,101234.63
2023-02-27T03:34:48.122Z,101241.28
2023-02-27T03:37:28.457Z,101248.00
2023-02-27T03:40:02.199Z,101252.06
2023-02-27T03:42:33.580Z,101237.53
2023-02-27T03:45:17.911Z,101246.69
2023-02-27T03:47:47.597Z,101246.03
2023-02-27T03:50:16.705Z,101259.41
2023-02-27T03:52:45.970Z,101256.78
2023-02-27T03:55:17.854Z,101253.22
2023-02-27T03:57:47.914Z,101253.84
2023-02-27T04:00:19.044Z,101262.00
2023-02-27T04:02:50.516Z,101254.88
2023-02-27T04:05:22.203Z,101266.44
2023-02-27T04:08:09.432Z,101261.06
2023-02-27T04:11:00.307Z,101262.84
2023-02-27T04:13:45.266Z,101266.28
2023-02-27T04:16:35.158Z,101277.03
2023-02-27T04:19:12.689Z,101278.00
2023-02-27T04:21:44.992Z,101279.31
2023-02-27T04:24:21.702Z,101296.00
2023-02-27T04:26:54.156Z,101293.38
2023-02-27T04:29:26.463Z,101290.78
2023-02-27T04:32:00.905Z,101301.88
2023-02-27T04:34:32.969Z,101294.66
2023-02-27T04:37:03.026Z,101306.09
2023-02-27T04:39:33.529Z,101299.59
2023-02-27T04:42:05.081Z,101305.13
2023-02-27T04:44:35.682Z,101311.34
2023-02-27T04:47:05.978Z,101305.78
2023-02-27T04:49:36.346Z,101305.13
2023-02-27T04:52:07.828Z,101313.78
2023-02-27T04:54:40.470Z,101321.75
2023-02-27T04:57:13.938Z,101315.88
2023-02-27T04:59:44.937Z,101317.22
2023-02-27T05:02:14.793Z,101329.75
2023-02-27T05:04:44.734Z,101328.44
2023-02-27T05:07:18.043Z,101318.81
2023-02-27T05:09:50.536Z,101306.78
2023-02-27T05:12:23.485Z,101322.59
2023-02-27T05:14:54.424Z,101323.06
2023-02-27T05:17:26.549Z,101329.25
2023-02-27T05:19:54.835Z,101334.72
2023-02-27T05:22:28.518Z,101331.69
2023-02-27T05:25:03.032Z,101327.66
2023-02-27T05:27:37.096Z,101321.44
2023-02-27T05:30:09.440Z,101325.38
2023-02-27T05:32:41.955Z,101332.53
2023-02-27T05:35:15.938Z,101334.81
2023-02-27T05:37:46.266Z,101332.84
2023-02-27T05:40:17.356Z,101331.22
2023-02-27T05:42:51.353Z,101324.72
2023-02-27T05:45:21.920Z,101324.38
2023-02-27T05:47:53.964Z,101331.56
2023-02-27T05:50:24.830Z,101334.97
2023-02-27T05:52:53.967Z,101335.81
2023-02-27T05:55:25.758Z,101339.22
2023-02-27T05:57:58.591Z,101338.41
2023-02-27T06:00:33.465Z,101338.09
2023-02-27T06:03:01.588Z,101345.25
2023-02-27T06:05:30.588Z,101338.38
2023-02-27T06:07:58.620Z,101341.81
2023-02-27T06:10:26.915Z,101345.25
2023-02-27T06:12:56.828Z,101333.19
2023-02-27T06:15:25.155Z,101340.19
2023-02-27T06:17:53.125Z,101347.53
2023-02-27T06:20:21.606Z,101347.88
2023-02-27T06:22:49.657Z,101341.69
2023-02-27T06:25:17.953Z,101353.56
2023-02-27T06:27:46.122Z,101360.28
2023-02-27T06:30:16.429Z,101366.63
2023-02-27T06:32:44.477Z,101365.31
2023-02-27T06:35:13.099Z,101356.66
2023-02-27T06:37:41.147Z,101365.81
2023-02-27T06:40:12.410Z,101368.59
2023-02-27T06:42:40.701Z,101369.41
2023-02-27T06:45:10.096Z,101364.34
2023-02-27T06:47:39.581Z,101369.72
2023-02-27T06:50:10.096Z,101374.63
2023-02-27T06:52:38.465Z,101382.47
2023-02-27T06:55:08.038Z,101384.09
2023-02-27T06:57:36.228Z,101381.78
2023-02-27T07:00:07.639Z,101375.94
2023-02-27T07:02:35.930Z,101376.88
2023-02-27T07:05:08.570Z,101388.66
2023-02-27T07:07:38.629Z,101383.59
2023-02-27T07:10:08.725Z,101401.41
2023-02-27T07:12:36.770Z,101401.41
2023-02-27T07:15:06.112Z,101406.94
2023-02-27T07:17:34.126Z,101408.25
2023-02-27T07:20:02.464Z,101411.19
2023-02-27T07:22:31.801Z,101410.84
2023-02-27T07:25:00.099Z,101405.13
2023-02-27T07:27:28.056Z,101409.53
2023-02-27T07:29:56.318Z,101408.16
2023-02-27T07:32:24.611Z,101411.03
2023-02-27T07:34:53.395Z,101408.81
2023-02-27T07:37:21.381Z,101419.25
2023-02-27T07:39:51.013Z,101411.41
2023-02-27T07:42:19.025Z,101406.81
2023-02-27T07:44:47.314Z,101407.50
2023-02-27T07:47:17.535Z,101410.78
2023-02-27T07:49:45.865Z,101409.47
2023-02-27T07:52:13.857Z,101411.13
2023-02-27T07:54:42.102Z,101395.59
2023-02-27T07:57:11.449Z,101409.00
2023-02-27T07:59:39.694Z,101397.69
2023-02-27T08:02:07.672Z,101405.22
2023-02-27T08:04:36.019Z,101399.16
2023-02-27T08:07:05.063Z,101400.31
2023-02-27T08:09:33.592Z,101412.41
2023-02-27T08:12:02.928Z,101418.94
2023-02-27T08:14:32.595Z,101412.69
2023-02-27T08:17:01.200Z,101413.50
2023-02-27T08:19:29.626Z,101402.66
2023-02-27T08:21:57.655Z,101408.16
2023-02-27T08:24:26.111Z,101401.22
2023-02-27T08:26:54.265Z,101405.06
2023-02-27T08:29:22.527Z,101397.88
2023-02-27T08:31:52.129Z,101398.50
2023-02-27T08:34:20.623Z,101400.47
2023-02-27T08:36:48.817Z,101397.53
2023-02-27T08:39:17.757Z,101396.19
2023-02-27T08:41:45.761Z,101395.84
2023-02-27T08:44:14.242Z,101404.34
2023-02-27T08:46:42.298Z,101402.81
2023-02-27T08:49:12.121Z,101409.69
2023-02-27T08:51:40.247Z,101412.84
2023-02-27T08:54:08.488Z,101408.19
2023-02-27T08:56:36.637Z,101404.94
2023-02-27T08:59:05.150Z,101411.44
2023-02-27T09:01:34.652Z,101409.47
2023-02-27T09:04:03.923Z,101407.16
2023-02-27T09:06:34.790Z,101404.38
2023-02-27T09:09:03.691Z,101406.09
2023-02-27T09:11:31.767Z,101416.59
2023-02-27T09:14:00.259Z,101422.47
2023-02-27T09:16:28.788Z,101420.44
2023-02-27T09:18:57.282Z,101421.63
2023-02-27T09:21:25.677Z,101420.56
2023-02-27T09:23:55.347Z,101415.78
2023-02-27T09:26:39.778Z,101422.78
2023-02-27T09:29:10.432Z,101429.19
2023-02-27T09:31:38.460Z,101431.03
2023-02-27T09:34:08.956Z,101427.78
2023-02-27T09:36:37.350Z,101440.25
2023-02-27T09:39:09.631Z,101435.91
2023-02-27T09:41:49.141Z,101431.75
2023-02-27T09:44:43.547Z,101437.94
2023-02-27T09:47:17.184Z,101450.03
2023-02-27T09:49:52.772Z,101449.66
2023-02-27T09:52:20.766Z,101452.47
2023-02-27T09:54:50.706Z,101455.91
2023-02-27T09:57:22.788Z,101447.06
2023-02-27T09:59:54.358Z,101456.31
2023-02-27T10:02:32.077Z,101453.94
2023-02-27T10:05:05.439Z,101469.06
2023-02-27T10:07:39.375Z,101460.09
2023-02-27T10:10:15.157Z,101463.16
2023-02-27T10:12:51.587Z,101469.09
2023-02-27T10:15:25.904Z,101467.34
2023-02-27T10:17:57.422Z,101463.03
2023-02-27T10:20:28.693Z,101470.72
2023-02-27T10:22:58.885Z,101475.53
2023-02-27T10:25:32.064Z,101467.84
2023-02-27T10:28:12.373Z,101465.22
2023-02-27T10:30:40.854Z,101476.16
2023-02-27T10:33:13.806Z,101466.84
2023-02-27T10:35:45.466Z,101463.59
2023-02-27T10:38:15.441Z,101452.66
2023-02-27T10:40:45.337Z,101468.09
2023-02-27T10:43:16.213Z,101455.53
2023-02-27T10:45:44.561Z,101468.31
2023-02-27T10:48:13.412Z,101466.47
2023-02-27T10:50:43.303Z,101465.59
2023-02-27T10:53:19.719Z,101456.16
2023-02-27T10:55:59.585Z,101468.47
2023-02-27T10:58:34.405Z,101466.06
2023-02-27T11:01:05.663Z,101456.19
2023-02-27T11:03:35.517Z,101459.00
2023-02-27T11:06:07.247Z,101451.63
2023-02-27T11:08:35.722Z,101459.53
2023-02-27T11:11:06.770Z,101461.91
2023-02-27T11:13:36.622Z,101451.69
2023-02-27T11:16:11.331Z,101456.56
2023-02-27T11:18:40.756Z,101455.97
2023-02-27T11:21:22.637Z,101448.94
2023-02-27T11:23:57.686Z,101456.47
2023-02-27T11:26:34.025Z,101446.38
2023-02-27T11:29:20.233Z,101447.31
2023-02-27T11:31:53.008Z,101439.13
2023-02-27T11:34:25.188Z,101444.47
2023-02-27T11:36:56.000Z,101447.38
2023-02-27T11:39:31.337Z,101440.88
2023-02-27T11:42:17.480Z,101442.28
2023-02-27T11:44:56.079Z,101436.63
2023-02-27T11:47:29.054Z,101448.81
2023-02-27T11:50:13.222Z,101450.03
2023-02-27T11:52:46.737Z,101444.63
2023-02-27T11:55:18.042Z,101444.88
2023-02-27T11:57:50.213Z,101443.34
2023-02-27T12:00:20.189Z,101443.97
2023-02-27T12:02:55.201Z,101440.31
2023-02-27T12:05:27.117Z,101433.84
2023-02-27T12:08:00.433Z,101426.91
2023-02-27T12:10:30.110Z,101430.78
2023-02-27T12:13:04.048Z,101428.78
2023-02-27T12:15:35.430Z,101415.97
2023-02-27T12:18:08.076Z,101416.53
2023-02-27T12:20:42.606Z,101410.69
2023-02-27T12:23:18.688Z,101396.78
2023-02-27T12:25:49.461Z,101404.69
2023-02-27T12:28:27.853Z,101399.06
2023-02-27T12:31:05.952Z,101395.94
2023-02-27T12:33:39.849Z,101393.56
2023-02-27T12:36:12.178Z,101386.31
2023-02-27T12:38:40.813Z,101376.59
2023-02-27T12:41:23.300Z,101377.13
2023-02-27T12:44:01.275Z,101382.25
2023-02-27T12:46:36.815Z,101375.97
2023-02-27T12:49:24.853Z,101379.59
2023-02-27T12:52:00.641Z,101377.19
2023-02-27T12:54:37.797Z,101373.81
2023-02-27T12:57:15.561Z,101366.00
2023-02-27T13:00:09.180Z,101353.59
2023-02-27T13:02:50.102Z,101366.94
2023-02-27T13:05:32.232Z,101369.06
2023-02-27T13:08:08.201Z,101363.34
2023-02-27T13:10:41.522Z,101365.34
2023-02-27T13:13:17.613Z,101359.47
2023-02-27T13:15:51.011Z,101359.72
2023-02-27T13:18:29.491Z,101370.13
2023-02-27T13:21:01.725Z,101368.00
2023-02-27T13:23:36.746Z,101361.25
2023-02-27T13:26:09.750Z,101357.97
2023-02-27T13:28:37.749Z,101350.44
2023-02-27T13:31:10.192Z,101351.53
2023-02-27T13:33:43.284Z,101345.91
2023-02-27T13:36:14.984Z,101341.53
2023-02-27T13:38:44.123Z,101340.06
2023-02-27T13:41:38.292Z,101341.84
2023-02-27T13:44:47.831Z,101332.59
2023-02-27T13:47:43.626Z,101342.66
2023-02-27T13:50:50.306Z,101340.06
2023-02-27T13:53:19.788Z,101336.00
2023-02-27T13:55:48.232Z,101339.94
2023-02-27T13:58:19.269Z,101337.09
2023-02-27T14:00:56.580Z,101333.31
2023-02-27T14:03:27.770Z,101338.38
2023-02-27T14:05:58.546Z,101332.31
2023-02-27T14:08:29.392Z,101341.97
2023-02-27T14:11:01.090Z,101344.72
2023-02-27T14:14:01.445Z,101347.81
2023-02-27T14:16:53.695Z,101349.34
2023-02-27T14:19:57.104Z,101346.44
2023-02-27T14:22:37.904Z,101342.09
2023-02-27T14:25:17.248Z,101341.78
2023-02-27T14:27:52.196Z,101344.06
2023-02-27T14:30:27.828Z,101340.38
2023-02-27T14:32:59.158Z,101333.66
2023-02-27T14:35:29.291Z,101341.78
2023-02-27T14:37:58.643Z,101350.69
2023-02-27T14:40:30.621Z,101352.22
2023-02-27T14:43:06.641Z,101348.41
2023-02-27T14:45:35.042Z,101345.59
2023-02-27T14:48:03.114Z,101344.97
2023-02-27T14:50:37.177Z,101352.59
2023-02-27T14:53:06.098Z,101346.81
2023-02-27T14:55:35.963Z,101336.03
2023-02-27T14:58:11.125Z,101343.13
2023-02-27T15:00:40.917Z,101349.50
2023-02-27T15:03:13.498Z,101353.59
2023-02-27T15:05:43.285Z,101341.22
2023-02-27T15:08:16.073Z,101346.91
2023-02-27T15:10:44.677Z,101350.47
2023-02-27T15:13:22.652Z,101343.13
2023-02-27T15:15:52.321Z,101344.22
2023-02-27T15:18:23.826Z,101347.44
2023-02-27T15:20:59.822Z,101338.19
2023-02-27T15:23:29.521Z,101343.16
2023-02-27T15:25:59.000Z,101342.31
2023-02-27T15:28:28.974Z,101349.31
2023-02-27T15:30:57.810Z,101348.06
2023-02-27T15:33:29.647Z,101338.53
2023-02-27T15:35:59.843Z,101345.44
2023-02-27T15:38:30.089Z,101349.00
2023-02-27T15:41:00.176Z,101347.41
2023-02-27T15:43:29.216Z,101349.13
2023-02-27T15:45:58.531Z,101335.13
2023-02-27T15:48:26.829Z,101348.56
2023-02-27T15:51:00.508Z,101351.88
2023-02-27T15:53:30.719Z,101348.91
2023-02-27T15:56:00.650Z,101346.28
2023-02-27T15:58:30.366Z,101353.34
2023-02-27T16:01:01.644Z,101344.41
2023-02-27T16:03:33.452Z,101354.50
2023-02-27T16:06:03.493Z,101361.09
2023-02-27T16:08:31.925Z,101355.09
2023-02-27T16:11:00.509Z,101361.25
2023-02-27T16:13:34.926Z,101359.69
2023-02-27T16:16:07.938Z,101368.91
2023-02-27T16:18:47.196Z,101373.41
2023-02-27T16:21:18.179Z,101362.47
2023-02-27T16:23:47.008Z,101379.03
2023-02-27T16:26:23.889Z,101384.91
2023-02-27T16:28:53.300Z,101380.31
2023-02-27T16:31:25.803Z,101395.31
2023-02-27T16:33:55.083Z,101401.88
2023-02-27T16:36:26.549Z,101390.66
2023-02-27T16:38:55.129Z,101403.94
2023-02-27T16:41:24.772Z,101411.06
2023-02-27T16:43:54.182Z,101411.72
2023-02-27T16:46:23.612Z,101407.91
2023-02-27T16:48:53.242Z,101423.13
2023-02-27T16:51:24.126Z,101425.25
2023-02-27T16:53:54.453Z,101431.47
2023-02-27T16:56:37.330Z,101436.50
2023-02-27T16:59:06.064Z,101431.34
2023-02-27T17:01:34.562Z,101445.69
2023-02-27T17:04:05.230Z,101440.28
2023-02-27T17:06:36.945Z,101457.94
2023-02-27T17:09:06.308Z,101448.22
2023-02-27T17:11:37.486Z,101454.53
2023-02-27T17:14:05.467Z,101458.97
2023-02-27T17:16:33.837Z,101468.88
2023-02-27T17:19:01.931Z,101469.28
2023-02-27T17:21:30.281Z,101467.44
2023-02-27T17:23:58.357Z,101471.22
2023-02-27T17:26:28.837Z,101463.28
2023-02-27T17:28:57.759Z,101475.22
2023-02-27T17:31:26.742Z,101480.91
2023-02-27T17:33:55.092Z,101481.25
2023-02-27T17:36:23.872Z,101489.63
2023-02-27T17:38:55.750Z,101490.88
2023-02-27T17:41:24.398Z,101495.44
2023-02-27T17:43:55.303Z,101500.81
2023-02-27T17:46:24.992Z,101516.16
2023-02-27T17:48:54.363Z,101508.31
2023-02-27T17:51:23.151Z,101512.84
2023-02-27T17:53:51.235Z,101521.06
2023-02-27T17:56:19.709Z,101520.44
2023-02-27T17:58:47.773Z,101524.19
2023-02-27T18:01:21.491Z,101530.81
2023-02-27T18:03:50.229Z,101528.69
2023-02-27T18:06:19.087Z,101533.63
2023-02-27T18:08:47.242Z,101531.78
2023-02-27T18:11:18.323Z,101527.19
2023-02-27T18:13:48.494Z,101538.56
2023-02-27T18:16:18.450Z,101545.84
2023-02-27T18:18:46.760Z,101539.34
2023-02-27T18:21:16.912Z,101541.94
2023-02-27T18:23:45.196Z,101548.31
2023-02-27T18:26:28.633Z,101539.41
2023-02-27T18:29:00.084Z,101544.59
2023-02-27T18:31:31.779Z,101539.25
2023-02-27T18:34:00.358Z,101536.63
2023-02-27T18:36:29.588Z,101551.16
2023-02-27T18:38:58.569Z,101554.25
2023-02-27T18:41:26.862Z,101559.97
2023-02-27T18:43:54.916Z,101554.63
2023-02-27T18:46:23.250Z,101551.81
2023-02-27T18:48:52.731Z,101550.84
2023-02-27T18:51:21.170Z,101553.72
2023-02-27T18:53:50.486Z,101555.66
2023-02-27T18:56:20.198Z,101550.13
2023-02-27T18:58:48.885Z,101549.13
2023-02-27T19:01:22.364Z,101556.47
2023-02-27T19:03:53.222Z,101552.31
2023-02-27T19:06:54.781Z,101552.13
2023-02-27T19:09:23.097Z,101550.66
2023-02-27T19:11:51.334Z,101562.34
2023-02-27T19:14:19.397Z,101562.34
2023-02-27T19:16:49.699Z,101562.25
2023-02-27T19:19:19.400Z,101564.88
2023-02-27T19:21:53.774Z,101557.94
2023-02-27T19:24:46.268Z,101555.72
2023-02-27T19:27:28.170Z,101563.38
2023-02-27T19:32:55.128Z,101557.84
2023-02-27T19:35:30.986Z,101568.22
2023-02-27T19:37:59.847Z,101555.88
2023-02-27T19:40:35.245Z,101558.88
2023-02-27T19:43:18.021Z,101562.94
2023-02-27T19:46:10.270Z,101552.88
2023-02-27T19:48:40.544Z,101560.75
2023-02-27T19:51:12.214Z,101556.78
2023-02-27T19:53:41.962Z,101564.84
2023-02-27T19:56:17.249Z,101564.22
2023-02-27T19:58:45.910Z,101573.19
2023-02-27T20:01:14.228Z,101555.56
2023-02-27T20:03:43.850Z,101556.81
2023-02-27T20:06:18.564Z,101569.59
2023-02-27T20:08:47.024Z,101573.41
2023-02-27T20:11:17.416Z,101565.91
2023-02-27T20:13:46.691Z,101564.16
2023-02-27T20:16:19.380Z,101569.03
2023-02-27T20:18:48.670Z,101575.44
2023-02-27T20:21:20.519Z,101563.59
2023-02-27T20:23:50.237Z,101570.41
2023-02-27T20:26:20.532Z,101558.72
2023-02-27T20:28:49.924Z,101551.75
2023-02-27T20:31:21.022Z,101561.72
2023-02-27T20:33:49.751Z,101555.63
2023-02-27T20:36:19.262Z,101557.56
2023-02-27T20:38:47.936Z,101545.41
2023-02-27T20:41:18.454Z,101554.19
2023-02-27T20:43:47.146Z,101555.03
2023-02-27T20:46:16.916Z,101555.97
2023-02-27T20:48:45.600Z,101554.66
2023-02-27T20:51:15.762Z,101554.34
2023-02-27T20:53:47.128Z,101551.06
2023-02-27T20:56:15.957Z,101558.78
2023-02-27T20:58:44.325Z,101558.41
2023-02-27T21:01:13.749Z,101554.16
2023-02-27T21:03:43.772Z,101558.13
2023-02-27T21:06:15.180Z,101555.03
2023-02-27T21:08:46.682Z,101558.63
2023-02-27T21:11:17.625Z,101568.72
2023-02-27T21:13:47.111Z,101562.06
2023-02-27T21:16:16.547Z,101566.69
2023-02-27T21:18:45.693Z,101568.59
2023-02-27T21:21:16.851Z,101571.63
2023-02-27T21:23:46.652Z,101576.00
2023-02-27T21:26:18.058Z,101575.94
2023-02-27T21:28:50.271Z,101568.78
2023-02-27T21:31:19.841Z,101569.66
2023-02-27T21:33:48.384Z,101568.31
2023-02-27T21:36:16.642Z,101563.53
2023-02-27T21:38:46.888Z,101555.66
2023-02-27T21:41:14.958Z,101564.72
2023-02-27T21:43:43.258Z,101564.38
2023-02-27T21:46:13.147Z,101551.41
2023-02-27T21:48:41.584Z,101561.41
2023-02-27T21:51:09.657Z,101547.06
2023-02-27T21:53:38.047Z,101546.13
2023-02-27T21:56:09.046Z,101548.84
2023-02-27T21:58:38.122Z,101547.19
2023-02-27T22:01:15.217Z,101549.00
2023-02-27T22:03:43.941Z,101544.53
2023-02-27T22:06:12.987Z,101532.69
2023-02-27T22:08:42.208Z,101533.25
2023-02-27T22:11:12.620Z,101529.41
2023-02-27T22:13:41.200Z,101536.63
2023-02-27T22:16:10.776Z,101543.53
2023-02-27T22:18:40.649Z,101535.13
2023-02-27T22:21:10.154Z,101537.56
2023-02-27T22:23:38.708Z,101540.28
2023-02-27T22:26:08.751Z,101532.81
2023-02-27T22:28:41.181Z,101538.06
2023-02-27T22:31:11.335Z,101540.19
2023-02-27T22:33:40.186Z,101536.19
2023-02-27T22:36:09.255Z,101541.78
2023-02-27T22:38:37.972Z,101530.59
2023-02-27T22:41:07.540Z,101541.44
2023-02-27T22:43:38.137Z,101531.13
2023-02-27T22:46:08.592Z,101534.69
2023-02-27T22:48:36.994Z,101528.16
2023-02-27T22:51:07.404Z,101535.16
2023-02-27T22:53:38.312Z,101529.81
2023-02-27T22:56:07.587Z,101532.50
2023-02-27T22:58:37.158Z,101528.41
2023-02-27T23:01:10.482Z,101534.63
2023-02-27T23:03:39.115Z,101524.16
2023-02-27T23:06:08.129Z,101529.47
2023-02-27T23:08:36.757Z,101522.88
2023-02-27T23:11:05.467Z,101532.75
2023-02-27T23:13:33.829Z,101531.84
2023-02-27T23:16:02.892Z,101538.06
2023-02-27T23:18:32.585Z,101526.50
2023-02-27T23:21:03.913Z,101521.56
2023-02-27T23:23:32.180Z,101521.53
2023-02-27T23:26:01.822Z,101534.72
2023-02-27T23:28:31.093Z,101523.09
2023-02-27T23:30:59.390Z,101534.97
2023-02-27T23:33:27.843Z,101536.63
2023-02-27T23:35:58.269Z,101534.09
2023-02-27T23:38:26.947Z,101536.59
2023-02-27T23:40:55.191Z,101536.28
2023-02-27T23:43:23.593Z,101529.50
2023-02-27T23:45:51.733Z,101526.16
2023-02-27T23:48:21.836Z,101536.84
2023-02-27T23:50:49.906Z,101532.66
2023-02-27T23:53:19.554Z,101536.09
2023-02-27T23:55:47.549Z,101531.00
2023-02-27T23:58:15.861Z,101537.63
